Time;durP1;ratioP1;P1;durP2;ratioP2;P2;SDS_P1;SDS_P2;PMS_P1;PMS_P2;Temp;Humidity;BMP_temperature;BMP_pressure;BME280_temperature;BME280_humidity;BME280_pressure;Samples;Min_cycle;Max_cycle;Signal;HPM_P1;HPM_P2
2022/12/12 00:00:20;;;;;;;33.05;15.57;;;;;;;-5.55;100.00;100220.00;6213149;28;20097;-90
2022/12/12 00:03:22;;;;;;;37.42;15.73;;;;;;;-5.62;100.00;100211.69;6233398;28;20120;-90
2022/12/12 00:06:25;;;;;;;36.08;15.30;;;;;;;-5.60;100.00;100216.72;6211111;28;20034;-90
2022/12/12 00:09:26;;;;;;;33.13;15.25;;;;;;;-5.69;100.00;100205.13;6227577;28;20048;-90
2022/12/12 00:12:28;;;;;;;33.10;15.80;;;;;;;-5.68;100.00;100206.78;6219503;28;20411;-91
2022/12/12 00:15:30;;;;;;;37.35;15.75;;;;;;;-5.73;100.00;100216.13;6218532;28;20038;-90
2022/12/12 00:18:32;;;;;;;33.30;15.82;;;;;;;-5.69;100.00;100217.72;6244491;28;20053;-91
2022/12/12 00:21:34;;;;;;;32.28;14.40;;;;;;;-5.68;100.00;100213.53;6232131;28;20069;-90
2022/12/12 00:24:35;;;;;;;34.03;15.25;;;;;;;-5.70;100.00;100221.09;6221145;28;20037;-90
2022/12/12 00:27:38;;;;;;;34.47;15.05;;;;;;;-5.69;100.00;100222.78;6234125;28;20050;-91
2022/12/12 00:30:39;;;;;;;36.80;16.67;;;;;;;-5.68;100.00;100211.00;6227464;28;20045;-90
2022/12/12 00:33:43;;;;;;;31.88;15.77;;;;;;;-5.68;100.00;100218.56;6220929;28;20041;-90
2022/12/12 00:36:45;;;;;;;33.38;16.48;;;;;;;-5.65;100.00;100219.31;6221139;28;20055;-90
2022/12/12 00:39:47;;;;;;;39.03;18.83;;;;;;;-5.58;100.00;100224.28;6233271;28;20056;-90
2022/12/12 00:42:48;;;;;;;43.17;18.50;;;;;;;-5.62;100.00;100226.00;6217260;28;20041;-90
2022/12/12 00:45:51;;;;;;;43.15;18.60;;;;;;;-5.62;100.00;100221.78;6218975;28;20057;-91
2022/12/12 00:48:55;;;;;;;36.17;18.00;;;;;;;-5.62;100.00;100226.00;6221528;28;20124;-90
2022/12/12 00:51:57;;;;;;;34.65;17.20;;;;;;;-5.58;100.00;100225.09;6221248;28;20054;-90
2022/12/12 00:54:59;;;;;;;37.08;16.40;;;;;;;-5.57;100.00;100223.41;6223172;28;20042;-90
2022/12/12 00:58:01;;;;;;;36.25;15.10;;;;;;;-5.63;100.00;100227.69;6223972;28;20045;-90
2022/12/12 01:01:27;;;;;;;32.47;13.98;;;;;;;-5.66;100.00;100231.97;6224302;28;20357;-91
2022/12/12 01:04:29;;;;;;;35.88;15.13;;;;;;;-5.60;100.00;100239.41;6219878;28;20084;-90
2022/12/12 01:07:31;;;;;;;32.42;14.38;;;;;;;-5.56;100.00;100240.22;6229980;28;20044;-90
2022/12/12 01:10:33;;;;;;;31.05;14.75;;;;;;;-5.55;100.00;100244.38;6229142;28;20042;-90
2022/12/12 01:13:36;;;;;;;27.70;14.15;;;;;;;-5.57;100.00;100246.09;6227150;28;20040;-90
2022/12/12 01:16:37;;;;;;;33.15;14.60;;;;;;;-5.59;100.00;100252.84;6233606;28;20041;-90
2022/12/12 01:19:39;;;;;;;36.28;13.68;;;;;;;-5.54;100.00;100256.97;6225085;28;20356;-90
2022/12/12 01:22:41;;;;;;;30.55;12.70;;;;;;;-5.58;100.00;100257.06;6237097;28;20447;-90
2022/12/12 01:25:43;;;;;;;32.28;14.45;;;;;;;-5.57;100.00;100253.66;6244305;28;20045;-91
2022/12/12 01:28:45;;;;;;;34.22;14.15;;;;;;;-5.57;100.00;100254.47;6227036;28;20129;-90
2022/12/12 01:31:47;;;;;;;29.58;12.85;;;;;;;-5.60;100.00;100257.06;6215392;28;20369;-90
2022/12/12 01:34:49;;;;;;;32.90;13.63;;;;;;;-5.63;100.00;100260.47;6225116;28;20045;-90
2022/12/12 01:37:50;;;;;;;33.53;14.45;;;;;;;-5.66;100.00;100262.22;6227802;28;20049;-91
2022/12/12 01:40:53;;;;;;;36.78;15.05;;;;;;;-5.65;100.00;100264.69;6232765;28;20041;-90
2022/12/12 01:43:55;;;;;;;34.33;14.50;;;;;;;-5.72;100.00;100258.09;6218503;28;20046;-91
2022/12/12 01:46:56;;;;;;;34.20;14.25;;;;;;;-5.69;100.00;100262.25;6216962;28;20044;-91
2022/12/12 01:49:58;;;;;;;35.88;14.63;;;;;;;-5.65;100.00;100263.88;6227028;28;20054;-90
2022/12/12 01:52:59;;;;;;;31.67;13.85;;;;;;;-5.66;100.00;100264.75;6226617;28;20053;-91
2022/12/12 01:56:07;;;;;;;31.60;14.32;;;;;;;-5.60;100.00;100261.28;6227878;28;20128;-90
2022/12/12 01:59:13;;;;;;;35.20;14.80;;;;;;;-5.67;100.00;100258.03;6228756;28;20450;-91
2022/12/12 02:02:15;;;;;;;32.17;13.13;;;;;;;-5.65;100.00;100256.31;6220705;28;20049;-90
2022/12/12 02:05:37;;;;;;;32.42;14.38;;;;;;;-5.66;100.00;100257.19;6227025;28;20431;-91
2022/12/12 02:08:40;;;;;;;30.23;13.43;;;;;;;-5.64;100.00;100260.47;6231528;28;20052;-91
2022/12/12 02:11:51;;;;;;;29.17;13.70;;;;;;;-5.69;100.00;100268.16;6234659;28;20048;-91
2022/12/12 02:14:53;;;;;;;28.60;14.00;;;;;;;-5.69;100.00;100259.72;6230298;28;20183;-91
2022/12/12 02:18:13;;;;;;;34.22;13.48;;;;;;;-5.76;100.00;100260.69;6227402;28;20041;-90
2022/12/12 02:21:53;;;;;;;31.10;13.98;;;;;;;-5.73;100.00;100260.66;6229879;28;20120;-91
2022/12/12 02:25:52;;;;;;;32.22;13.73;;;;;;;-5.73;100.00;100261.47;6225072;28;20042;-91
2022/12/12 02:29:12;;;;;;;32.13;13.77;;;;;;;-5.72;100.00;100260.63;6183837;28;20046;-90
2022/12/12 02:32:32;;;;;;;36.25;14.02;;;;;;;-5.71;100.00;100259.78;6183697;28;20161;-91
2022/12/12 02:35:51;;;;;;;35.25;14.88;;;;;;;-5.71;100.00;100267.34;6177222;28;20114;-91
2022/12/12 02:39:17;;;;;;;33.95;13.60;;;;;;;-5.65;100.00;100267.22;6184121;28;20108;-90
2022/12/12 02:42:40;;;;;;;29.58;12.30;;;;;;;-5.74;100.00;100264.88;6184182;28;20038;-91
2022/12/12 02:45:54;;;;;;;28.98;12.80;;;;;;;-5.69;100.00;100273.19;6185189;28;20608;-90
2022/12/12 02:49:05;;;;;;;32.78;13.13;;;;;;;-5.74;100.00;100274.09;6190798;28;20054;-90
2022/12/12 02:52:08;;;;;;;27.70;12.25;;;;;;;-5.82;100.00;100275.91;6167713;28;20046;-90
2022/12/12 02:55:10;;;;;;;24.40;11.93;;;;;;;-5.90;100.00;100276.88;6183747;28;20050;-91
2022/12/12 02:58:13;;;;;;;27.48;13.05;;;;;;;-5.92;100.00;100275.22;6188701;28;20053;-90
2022/12/12 03:01:57;;;;;;;34.10;12.98;;;;;;;-5.93;100.00;100266.03;6222563;28;20120;-90
2022/12/12 03:09:27;;;;;;;27.40;12.55;;;;;;;-5.99;100.00;100272.00;6226269;28;20602;-91
2022/12/12 03:18:26;;;;;;;28.98;13.18;;;;;;;-6.00;100.00;100275.38;6221854;28;20050;-90
2022/12/12 03:22:43;;;;;;;30.88;12.55;;;;;;;-6.05;100.00;100274.63;6224050;28;20058;-91
2022/12/12 03:26:32;;;;;;;27.90;12.25;;;;;;;-6.06;100.00;100272.97;6214728;28;20049;-91
2022/12/12 03:29:42;;;;;;;29.85;13.90;;;;;;;-6.06;100.00;100270.44;6219778;28;20034;-91
2022/12/12 03:32:44;;;;;;;33.03;13.30;;;;;;;-6.03;100.00;100269.56;6230177;28;20044;-91
2022/12/12 03:35:51;;;;;;;31.05;13.90;;;;;;;-6.08;100.00;100265.44;6222270;28;20038;-90
2022/12/12 03:38:58;;;;;;;33.92;13.57;;;;;;;-6.09;100.00;100262.91;6247206;28;20084;-91
2022/12/12 03:42:08;;;;;;;31.08;13.20;;;;;;;-6.14;100.00;100260.47;6229062;28;20075;-91
2022/12/12 03:45:21;;;;;;;32.30;14.13;;;;;;;-6.11;100.00;100269.66;6221170;28;20033;-90
2022/12/12 03:48:33;;;;;;;35.05;13.55;;;;;;;-6.12;100.00;100262.97;6220277;28;20036;-90
2022/12/12 03:51:40;;;;;;;32.50;13.73;;;;;;;-6.23;100.00;100264.81;6223595;28;20046;-90
2022/12/12 03:54:48;;;;;;;32.05;13.45;;;;;;;-6.30;100.00;100269.94;6213135;28;20333;-91
2022/12/12 03:58:08;;;;;;;30.30;13.15;;;;;;;-6.23;100.00;100269.88;6223503;28;20053;-91
2022/12/12 04:01:11;;;;;;;31.58;13.43;;;;;;;-6.29;100.00;100266.56;6211377;28;20112;-91
2022/12/12 04:04:19;;;;;;;29.05;12.38;;;;;;;-6.30;100.00;100269.09;6213485;28;20034;-92
2022/12/12 04:07:31;;;;;;;30.77;12.80;;;;;;;-6.33;100.00;100277.53;6215246;28;20041;-92
2022/12/12 04:14:27;;;;;;;30.30;11.20;;;;;;;-6.39;100.00;100274.25;6226888;28;20033;-91
2022/12/12 04:17:37;;;;;;;31.70;11.35;;;;;;;-6.45;100.00;100262.59;6221442;28;20495;-91
2022/12/12 04:24:49;;;;;;;23.98;10.57;;;;;;;-6.38;100.00;100281.81;6226052;28;20530;-91
2022/12/12 04:27:54;;;;;;;24.67;10.82;;;;;;;-6.40;100.00;100281.00;6216043;28;20508;-91
2022/12/12 04:31:02;;;;;;;23.65;9.00;;;;;;;-6.41;100.00;100286.03;6225922;28;20403;-91
2022/12/12 04:34:21;;;;;;;27.23;9.82;;;;;;;-6.42;100.00;100289.41;6226150;28;20037;-91
2022/12/12 04:37:31;;;;;;;22.60;9.88;;;;;;;-6.25;100.00;100291.72;6226306;28;20091;-91
2022/12/12 04:40:45;;;;;;;22.58;10.02;;;;;;;-6.22;100.00;100292.50;6215925;28;20048;-91
2022/12/12 04:43:49;;;;;;;24.25;9.00;;;;;;;-6.29;100.00;100291.72;6217679;28;20131;-91
2022/12/12 04:46:53;;;;;;;23.55;9.35;;;;;;;-6.28;100.00;100285.84;6223851;28;20514;-91
2022/12/12 04:49:57;;;;;;;27.55;9.73;;;;;;;-6.20;100.00;100289.97;6150763;28;20053;-91
2022/12/12 04:53:02;;;;;;;25.58;10.02;;;;;;;-6.23;100.00;100284.97;6196397;28;20041;-91
2022/12/12 04:56:10;;;;;;;22.80;9.75;;;;;;;-6.21;100.00;100286.63;6190585;28;20043;-91
2022/12/12 04:59:12;;;;;;;22.92;9.50;;;;;;;-6.17;100.00;100285.69;6193522;28;20803;-91
2022/12/12 05:02:38;;;;;;;21.10;8.38;;;;;;;-6.22;100.00;100294.19;6193210;28;20467;-91
2022/12/12 05:05:47;;;;;;;26.60;9.73;;;;;;;-6.31;100.00;100285.91;6190200;28;20042;-91
2022/12/12 05:08:52;;;;;;;27.42;10.68;;;;;;;-6.36;100.00;100290.19;6196627;28;20042;-91
2022/12/12 05:11:54;;;;;;;22.58;10.70;;;;;;;-6.45;100.00;100294.50;6215545;28;20520;-91
2022/12/12 05:14:56;;;;;;;20.98;9.77;;;;;;;-6.47;100.00;100289.47;6200302;28;20050;-91
2022/12/12 05:18:07;;;;;;;22.95;10.55;;;;;;;-6.45;100.00;100289.47;6199498;28;20412;-92
2022/12/12 05:21:09;;;;;;;27.05;10.20;;;;;;;-6.40;100.00;100291.06;6205725;28;20125;-91
2022/12/12 05:24:10;;;;;;;23.15;10.60;;;;;;;-6.41;100.00;100296.09;6198957;28;20465;-91
2022/12/12 05:27:12;;;;;;;24.67;10.73;;;;;;;-6.50;100.00;100292.03;6190997;28;20049;-91
2022/12/12 05:30:14;;;;;;;29.67;11.25;;;;;;;-6.55;100.00;100289.56;6206663;28;20416;-91
2022/12/12 05:33:16;;;;;;;28.65;11.13;;;;;;;-6.58;100.00;100291.31;6197320;28;20049;-91
2022/12/12 05:36:18;;;;;;;27.08;11.27;;;;;;;-6.58;100.00;100288.78;6216568;28;20621;-91
2022/12/12 05:39:21;;;;;;;31.40;11.82;;;;;;;-6.60;100.00;100291.31;6209756;28;20582;-91
2022/12/12 05:42:22;;;;;;;27.00;11.90;;;;;;;-6.56;100.00;100292.97;6203707;28;20049;-92
2022/12/12 05:45:25;;;;;;;32.95;11.60;;;;;;;-6.58;100.00;100287.09;6206311;28;20053;-91
2022/12/12 05:48:27;;;;;;;30.88;12.02;;;;;;;-6.59;100.00;100285.41;6202196;28;20044;-91
2022/12/12 05:51:32;;;;;;;21.35;9.63;;;;;;;-6.55;100.00;100291.25;6209285;28;20065;-91
2022/12/12 05:54:34;;;;;;;27.98;10.23;;;;;;;-6.53;100.00;100290.41;6204534;28;20046;-91
2022/12/12 05:57:36;;;;;;;25.15;10.48;;;;;;;-6.49;100.00;100293.69;6213359;28;20045;-91
2022/12/12 06:00:38;;;;;;;23.77;10.15;;;;;;;-6.46;100.00;100297.84;6213973;28;20045;-91
2022/12/12 06:03:39;;;;;;;26.25;9.88;;;;;;;-6.51;100.00;100295.38;6211428;28;20129;-91
2022/12/12 06:06:42;;;;;;;23.48;9.80;;;;;;;-6.48;100.00;100299.56;6222989;28;20492;-91
2022/12/12 06:09:44;;;;;;;29.02;10.63;;;;;;;-6.51;100.00;100311.34;6193438;28;20038;-91
2022/12/12 06:12:45;;;;;;;24.92;11.40;;;;;;;-6.54;100.00;100305.50;6196407;28;20540;-91
2022/12/12 06:15:47;;;;;;;28.55;10.35;;;;;;;-6.57;100.00;100315.63;6199082;28;20050;-91
2022/12/12 06:18:52;;;;;;;28.52;10.55;;;;;;;-6.45;100.00;100312.13;6203619;28;20349;-91
2022/12/12 06:21:54;;;;;;;27.50;10.50;;;;;;;-6.46;100.00;100311.25;6200161;28;20038;-91
2022/12/12 06:24:56;;;;;;;24.85;10.93;;;;;;;-6.47;100.00;100316.34;6209441;28;20038;-91
2022/12/12 06:27:58;;;;;;;30.40;11.63;;;;;;;-6.54;100.00;100334.03;6207164;28;20160;-91
2022/12/12 06:31:00;;;;;;;31.13;12.77;;;;;;;-6.60;100.00;100328.25;6214292;28;20050;-91
2022/12/12 06:34:05;;;;;;;27.55;11.80;;;;;;;-6.61;100.00;100327.41;6203022;28;20073;-91
2022/12/12 06:37:07;;;;;;;32.67;14.30;;;;;;;-6.63;100.00;100326.59;6201932;28;20062;-91
2022/12/12 06:40:17;;;;;;;31.73;13.52;;;;;;;-6.62;100.00;100335.81;6216341;28;20448;-91
2022/12/12 06:43:19;;;;;;;28.77;12.13;;;;;;;-6.59;100.00;100330.72;6203469;28;20042;-91
2022/12/12 06:46:24;;;;;;;29.63;11.82;;;;;;;-6.65;100.00;100330.81;6208970;28;20050;-90
2022/12/12 06:49:26;;;;;;;27.70;12.02;;;;;;;-6.78;100.00;100342.72;6205530;28;20046;-91
2022/12/12 06:52:30;;;;;;;25.08;11.50;;;;;;;-6.74;100.00;100351.03;6209364;28;20928;-91
2022/12/12 06:55:31;;;;;;;29.20;12.32;;;;;;;-6.73;100.00;100338.47;6206439;28;20515;-91
2022/12/12 06:58:34;;;;;;;27.15;11.70;;;;;;;-6.75;100.00;100349.41;6207744;28;20661;-91
2022/12/12 07:01:36;;;;;;;28.80;11.50;;;;;;;-6.75;100.00;100347.69;6211420;28;20334;-90
2022/12/12 07:04:38;;;;;;;26.85;11.35;;;;;;;-6.77;100.00;100354.44;6209424;28;20050;-91
2022/12/12 07:07:40;;;;;;;23.73;11.18;;;;;;;-6.72;100.00;100354.38;6219239;28;20554;-90
2022/12/12 07:10:43;;;;;;;30.50;11.52;;;;;;;-6.74;100.00;100363.63;6203240;28;20658;-90
2022/12/12 07:13:44;;;;;;;29.02;12.80;;;;;;;-6.78;100.00;100364.50;6201159;28;20397;-91
2022/12/12 07:16:46;;;;;;;26.83;11.30;;;;;;;-6.83;100.00;100372.13;6203537;28;20140;-90
2022/12/12 07:19:48;;;;;;;25.45;12.32;;;;;;;-6.83;100.00;100374.63;6204863;28;20109;-90
2022/12/12 07:22:50;;;;;;;28.60;11.82;;;;;;;-6.94;100.00;100371.38;6201062;28;20037;-90
2022/12/12 07:25:52;;;;;;;28.90;12.55;;;;;;;-7.03;100.00;100366.44;6196204;28;20173;-90
2022/12/12 07:28:54;;;;;;;31.48;12.80;;;;;;;-7.02;100.00;100373.97;6198280;28;20531;-90
2022/12/12 07:31:56;;;;;;;29.95;13.73;;;;;;;-7.03;100.00;100376.50;6218279;28;20045;-90
2022/12/12 07:34:57;;;;;;;26.73;11.85;;;;;;;-7.08;100.00;100374.03;6203981;28;20030;-91
2022/12/12 07:37:59;;;;;;;28.00;10.93;;;;;;;-7.17;100.00;100372.44;6196451;28;20030;-90
2022/12/12 07:41:07;;;;;;;30.05;11.20;;;;;;;-7.04;100.00;100369.81;6201364;28;20042;-90
2022/12/12 07:44:09;;;;;;;26.65;11.52;;;;;;;-6.97;100.00;100372.25;6201002;28;20072;-90
2022/12/12 07:47:10;;;;;;;25.25;10.65;;;;;;;-6.91;100.00;100370.53;6208826;28;20054;-90
2022/12/12 07:50:12;;;;;;;23.15;10.15;;;;;;;-6.90;100.00;100377.22;6192291;28;20497;-90
2022/12/12 07:53:14;;;;;;;24.30;9.82;;;;;;;-6.78;100.00;100377.94;6202124;28;20037;-90
2022/12/12 07:56:18;;;;;;;24.42;10.52;;;;;;;-6.72;100.00;100375.34;6204516;28;20489;-90
2022/12/12 07:59:20;;;;;;;18.73;8.60;;;;;;;-6.66;100.00;100382.00;6204833;28;20180;-90
2022/12/12 08:02:22;;;;;;;24.42;10.70;;;;;;;-6.64;100.00;100382.81;6199573;28;20053;-90
2022/12/12 08:05:24;;;;;;;21.63;8.55;;;;;;;-6.53;100.00;100377.69;6214402;28;20640;-90
2022/12/12 08:08:26;;;;;;;20.77;9.05;;;;;;;-6.42;100.00;100382.56;6193787;28;20065;-90
2022/12/12 08:11:28;;;;;;;32.13;9.18;;;;;;;-6.42;100.00;100382.56;6200430;28;20066;-90
2022/12/12 08:14:31;;;;;;;22.88;9.40;;;;;;;-6.39;100.00;100390.91;6186579;28;20409;-90
2022/12/12 08:17:32;;;;;;;20.05;9.07;;;;;;;-6.30;100.00;100390.81;6201678;28;20078;-90
2022/12/12 08:20:38;;;;;;;22.83;9.05;;;;;;;-6.35;100.00;100386.69;6202725;28;20136;-90
2022/12/12 08:23:40;;;;;;;22.13;9.05;;;;;;;-6.27;100.00;100389.94;6199360;28;20136;-90
2022/12/12 08:26:43;;;;;;;21.25;8.77;;;;;;;-6.26;100.00;100391.59;6208421;28;20176;-90
2022/12/12 08:29:45;;;;;;;27.25;10.30;;;;;;;-6.23;100.00;100384.03;6198389;28;20061;-90
2022/12/12 08:32:47;;;;;;;24.73;10.38;;;;;;;-6.23;100.00;100380.69;6201517;28;20050;-90
2022/12/12 08:35:49;;;;;;;26.63;10.90;;;;;;;-6.17;100.00;100386.47;6194977;28;20474;-90
2022/12/12 08:38:52;;;;;;;25.00;10.73;;;;;;;-6.13;100.00;100390.63;6203267;28;20137;-90
2022/12/12 08:41:55;;;;;;;24.90;10.50;;;;;;;-6.13;100.00;100390.63;6197847;28;20047;-90
2022/12/12 08:44:57;;;;;;;24.40;10.25;;;;;;;-6.07;100.00;100389.69;6195178;28;20168;-90
2022/12/12 08:47:58;;;;;;;26.65;10.55;;;;;;;-6.05;100.00;100397.25;6202571;28;20452;-90
2022/12/12 08:51:00;;;;;;;22.42;9.80;;;;;;;-5.95;100.00;100394.56;6202019;28;20879;-90
2022/12/12 08:54:02;;;;;;;23.38;10.20;;;;;;;-5.91;100.00;100408.78;6199160;28;20042;-90
2022/12/12 08:57:04;;;;;;;25.80;11.38;;;;;;;-5.89;100.00;100397.00;6198945;28;20223;-90
2022/12/12 09:00:08;;;;;;;26.88;12.02;;;;;;;-5.85;100.00;100401.13;6219622;28;20045;-90
2022/12/12 09:03:10;;;;;;;25.02;11.57;;;;;;;-5.83;100.00;100400.28;6201925;28;20046;-90
2022/12/12 09:06:13;;;;;;;25.75;11.35;;;;;;;-5.81;100.00;100399.41;6202716;28;20157;-90
2022/12/12 09:09:15;;;;;;;28.50;11.75;;;;;;;-5.81;100.00;100404.44;6205216;28;20042;-90
2022/12/12 09:12:16;;;;;;;29.48;11.50;;;;;;;-5.76;100.00;100402.69;6216995;28;20042;-90
2022/12/12 09:15:18;;;;;;;29.52;11.75;;;;;;;-5.75;100.00;100409.38;6204442;28;20038;-90
2022/12/12 09:18:21;;;;;;;31.83;11.68;;;;;;;-5.69;100.00;100400.91;6226449;28;20045;-90
2022/12/12 09:21:22;;;;;;;27.75;12.80;;;;;;;-5.62;100.00;100412.56;6215428;28;20049;-90
2022/12/12 09:24:24;;;;;;;27.98;11.75;;;;;;;-5.58;100.00;100405.81;6215148;28;20587;-90
2022/12/12 09:27:26;;;;;;;24.90;10.90;;;;;;;-5.55;100.00;100406.59;6212213;28;20038;-90
2022/12/12 09:30:28;;;;;;;27.80;12.15;;;;;;;-5.50;100.00;100412.38;6204932;28;20431;-90
2022/12/12 09:33:29;;;;;;;29.75;12.52;;;;;;;-5.46;100.00;100415.72;6211275;28;20045;-90
2022/12/12 09:36:31;;;;;;;26.45;12.15;;;;;;;-5.43;100.00;100424.06;6222018;28;20069;-90
2022/12/12 09:39:33;;;;;;;29.13;12.00;;;;;;;-5.36;100.00;100419.75;6194828;28;20050;-90
2022/12/12 09:42:45;;;;;;;31.13;12.43;;;;;;;-5.39;100.00;100424.84;6193995;28;20120;-90
2022/12/12 09:45:47;;;;;;;31.02;12.88;;;;;;;-5.34;100.00;100419.72;6213143;28;20499;-90
2022/12/12 09:48:51;;;;;;;30.05;12.95;;;;;;;-5.27;100.00;100424.63;6206494;28;20508;-90
2022/12/12 09:51:54;;;;;;;40.85;14.05;;;;;;;-5.22;100.00;100419.53;6202719;28;20046;-90
2022/12/12 09:54:59;;;;;;;31.88;13.48;;;;;;;-5.23;100.00;100418.69;6209900;28;20045;-90
2022/12/12 09:58:15;;;;;;;35.47;13.45;;;;;;;-5.17;100.00;100421.97;6205593;28;20423;-90
2022/12/12 10:01:38;;;;;;;31.30;13.52;;;;;;;-5.14;100.00;100422.78;6211299;28;20117;-90
2022/12/12 10:05:17;;;;;;;32.63;13.57;;;;;;;-5.08;100.00;100426.88;6208185;28;20041;-89
2022/12/12 10:08:37;;;;;;;34.17;14.07;;;;;;;-5.02;100.00;100426.78;6210488;28;20534;-89
2022/12/12 10:11:50;;;;;;;35.73;14.60;;;;;;;-4.98;100.00;100434.28;6207795;28;20416;-89
2022/12/12 10:15:03;;;;;;;34.83;14.52;;;;;;;-4.96;100.00;100436.78;6206554;28;20112;-89
2022/12/12 10:18:13;;;;;;;31.73;14.30;;;;;;;-4.93;100.00;100438.41;6193247;28;20046;-89
2022/12/12 10:21:21;;;;;;;30.15;13.93;;;;;;;-4.86;100.00;100438.28;6202259;28;20862;-89
2022/12/12 10:24:38;;;;;;;35.53;14.52;;;;;;;-4.83;100.00;100439.94;6203885;28;20042;-89
2022/12/12 10:27:40;;;;;;;33.28;13.68;;;;;;;-4.81;100.00;100451.66;6205704;28;20041;-89
2022/12/12 10:31:24;;;;;;;36.40;14.02;;;;;;;-4.77;100.00;100447.38;6208228;28;20458;-89
2022/12/12 10:34:53;;;;;;;36.35;14.00;;;;;;;-4.74;100.00;100444.81;6219378;28;20034;-88
2022/12/12 10:38:27;;;;;;;31.80;13.52;;;;;;;-4.71;100.00;100443.94;6202830;28;20133;-89
2022/12/12 10:41:42;;;;;;;38.65;14.45;;;;;;;-4.67;100.00;100440.47;6196419;28;20046;-89
2022/12/12 10:44:44;;;;;;;32.03;13.80;;;;;;;-4.60;100.00;100440.34;6201627;28;20045;-89
2022/12/12 10:47:48;;;;;;;33.90;14.07;;;;;;;-4.58;100.00;100448.72;6203030;28;20053;-89
2022/12/12 10:50:55;;;;;;;35.30;14.43;;;;;;;-4.55;100.00;100442.78;6191809;28;20050;-89
2022/12/12 10:53:56;;;;;;;32.58;13.25;;;;;;;-4.52;100.00;100436.84;6197135;28;20042;-89
2022/12/12 10:57:19;;;;;;;29.40;12.95;;;;;;;-4.49;100.00;100432.59;6195206;28;20041;-89
2022/12/12 11:00:40;;;;;;;32.60;13.50;;;;;;;-4.48;100.00;100434.25;6193763;28;20038;-89
2022/12/12 11:03:49;;;;;;;;;;;;;;;-4.48;100.00;100439.28;6200418;28;20116;-89
2022/12/12 11:06:55;;;;;;;35.17;13.35;;;;;;;-4.44;100.00;100433.34;6200533;28;20368;-89
2022/12/12 11:09:57;;;;;;;34.75;14.35;;;;;;;-4.43;100.00;100434.97;6196919;28;20049;-89
2022/12/12 11:13:09;;;;;;;30.00;13.98;;;;;;;-4.40;100.00;100437.44;6208928;28;20324;-89
2022/12/12 11:16:22;;;;;;;35.85;13.60;;;;;;;-4.34;100.00;100437.34;6204039;28;20468;-88
2022/12/12 11:19:26;;;;;;;30.55;13.38;;;;;;;-4.28;100.00;100438.09;6200438;28;20073;-88
2022/12/12 11:22:32;;;;;;;36.28;15.10;;;;;;;-4.23;100.00;100428.72;6189533;28;20165;-89
2022/12/12 11:25:35;;;;;;;31.70;13.85;;;;;;;-4.19;100.00;100431.16;6198593;28;20098;-88
2022/12/12 11:28:38;;;;;;;32.90;13.77;;;;;;;-4.15;100.00;100422.66;6209749;28;20050;-88
2022/12/12 11:31:43;;;;;;;34.95;13.57;;;;;;;-4.12;100.00;100426.81;6202592;28;20041;-88
2022/12/12 11:34:49;;;;;;;32.00;14.20;;;;;;;-4.08;100.00;100435.16;6190578;28;20046;-88
2022/12/12 11:37:58;;;;;;;33.65;13.65;;;;;;;-4.07;100.00;100426.72;6203456;28;20512;-88
2022/12/12 11:41:03;;;;;;;32.50;13.80;;;;;;;-4.03;100.00;100426.63;6189212;28;20054;-88
2022/12/12 11:44:24;;;;;;;31.25;12.77;;;;;;;-4.00;100.00;100425.72;6208603;28;20124;-88
2022/12/12 11:47:34;;;;;;;32.45;13.25;;;;;;;-3.98;100.00;100424.81;6211676;28;20458;-88
2022/12/12 11:50:44;;;;;;;28.88;12.88;;;;;;;-3.95;100.00;100426.47;6214426;28;20061;-88
2022/12/12 11:53:47;;;;;;;32.20;13.13;;;;;;;-3.91;100.00;100425.53;6210045;28;20042;-88
2022/12/12 11:57:05;;;;;;;30.27;12.60;;;;;;;-3.88;100.00;100428.00;6206811;28;20125;-88
2022/12/12 12:00:19;;;;;;;30.58;13.52;;;;;;;-3.86;100.00;100421.22;6208717;28;20520;-88
2022/12/12 12:03:48;;;;;;;28.85;11.73;;;;;;;-3.86;100.00;100420.38;6192033;28;20050;-88
2022/12/12 12:06:59;;;;;;;26.17;11.00;;;;;;;-3.81;100.00;100416.06;6128830;28;20277;-88
2022/12/12 12:10:17;;;;;;;30.73;11.68;;;;;;;-3.76;100.00;100419.31;6136147;28;20054;-88
2022/12/12 12:14:02;;;;;;;25.67;11.45;;;;;;;-3.72;100.00;100420.94;6136717;28;20058;-88
2022/12/12 12:17:31;;;;;;;25.85;11.93;;;;;;;-3.75;100.00;100420.97;6116976;28;20078;-88
2022/12/12 12:20:54;;;;;;;28.88;13.13;;;;;;;-3.73;100.00;100419.25;6065200;29;20446;-88
2022/12/12 12:24:32;;;;;;;29.83;12.93;;;;;;;-3.76;100.00;100417.63;6058880;29;20107;-88
2022/12/12 12:28:06;;;;;;;31.17;13.95;;;;;;;-3.71;100.00;100409.94;6065456;29;20114;-88
2022/12/12 12:31:20;;;;;;;27.45;12.52;;;;;;;-3.72;100.00;100411.63;5996788;29;20194;-88
2022/12/12 12:34:59;;;;;;;31.92;14.32;;;;;;;-3.72;100.00;100403.22;5994858;29;20062;-88
2022/12/12 12:38:15;;;;;;;34.85;13.57;;;;;;;-3.73;100.00;100407.44;5991730;29;20058;-88
2022/12/12 12:41:36;;;;;;;30.25;13.43;;;;;;;-3.74;100.00;100393.13;5996424;29;20088;-88
2022/12/12 12:45:15;;;;;;;28.07;12.77;;;;;;;-3.73;100.00;100397.31;6014563;29;20509;-88
2022/12/12 12:48:27;;;;;;;41.45;13.68;;;;;;;-3.73;100.00;100394.78;6015086;29;20120;-87
2022/12/12 12:51:59;;;;;;;29.75;12.60;;;;;;;-3.73;100.00;100393.97;6019299;29;20520;-87
2022/12/12 12:55:10;;;;;;;29.27;12.32;;;;;;;-3.78;100.00;100389.00;6019253;29;20428;-87
2022/12/12 12:58:29;;;;;;;28.83;13.45;;;;;;;-3.77;100.00;100394.91;6048141;29;20186;-87
2022/12/12 13:01:39;;;;;;;28.25;13.02;;;;;;;-3.80;100.00;100393.28;6062656;29;20097;-87
2022/12/12 13:04:58;;;;;;;28.17;12.85;;;;;;;-3.84;100.00;100396.72;6045684;29;20111;-88
2022/12/12 13:08:13;;;;;;;31.88;13.35;;;;;;;-3.85;100.00;100397.59;6132667;28;20067;-88
2022/12/12 13:11:25;;;;;;;31.17;13.65;;;;;;;-3.85;100.00;100394.22;6133045;28;20423;-87
2022/12/12 13:14:39;;;;;;;26.60;12.60;;;;;;;-3.88;100.00;100396.81;6135503;28;20047;-88
2022/12/12 13:17:53;;;;;;;29.95;13.55;;;;;;;-3.88;100.00;100392.59;6133233;28;20134;-88
2022/12/12 13:21:43;;;;;;;28.40;13.48;;;;;;;-3.90;100.00;100391.78;6134685;28;20071;-87
2022/12/12 13:24:51;;;;;;;32.40;13.77;;;;;;;-3.93;100.00;100391.88;6141154;28;20058;-88
2022/12/12 13:28:10;;;;;;;27.77;12.70;;;;;;;-3.93;100.00;100396.91;6181465;28;20054;-87
2022/12/12 13:31:42;;;;;;;34.15;13.68;;;;;;;-3.96;100.00;100397.81;6144845;28;20055;-88
2022/12/12 13:34:48;;;;;;;29.83;13.57;;;;;;;-3.96;100.00;100395.28;6158964;28;20055;-88
2022/12/12 13:37:53;;;;;;;32.47;13.77;;;;;;;-3.97;100.00;100390.28;6161327;28;20063;-88
2022/12/12 13:41:07;;;;;;;29.67;13.60;;;;;;;-3.95;100.00;100391.06;6170179;28;20234;-87
2022/12/12 13:44:35;;;;;;;24.88;12.27;;;;;;;-3.98;100.00;100389.44;6149684;28;20322;-88
2022/12/12 13:47:54;;;;;;;29.00;13.25;;;;;;;-4.00;100.00;100392.84;6172154;28;20184;-88
2022/12/12 13:51:26;;;;;;;27.75;12.88;;;;;;;-4.01;100.00;100396.25;6157291;28;20497;-88
2022/12/12 13:54:28;;;;;;;26.15;12.02;;;;;;;-4.03;100.00;100395.47;6177891;28;20054;-88
2022/12/12 13:57:31;;;;;;;33.92;13.10;;;;;;;-4.04;100.00;100398.88;6165288;28;20047;-88
2022/12/12 14:00:40;;;;;;;32.53;13.10;;;;;;;-4.05;100.00;100403.09;6186351;28;20444;-88
2022/12/12 14:03:45;;;;;;;25.48;12.82;;;;;;;-4.04;100.00;100403.91;6209124;28;20443;-88
2022/12/12 14:07:13;;;;;;;32.15;13.85;;;;;;;-4.05;100.00;100403.09;6210499;28;20057;-88
2022/12/12 14:10:36;;;;;;;25.35;11.35;;;;;;;-4.06;100.00;100403.94;6203299;28;20045;-88
2022/12/12 14:13:41;;;;;;;22.50;11.40;;;;;;;-4.07;100.00;100414.06;6204937;28;20087;-88
2022/12/12 14:16:51;;;;;;;27.70;12.88;;;;;;;-4.11;100.00;100409.09;6206212;28;20038;-88
2022/12/12 14:19:57;;;;;;;24.75;11.10;;;;;;;-4.15;100.00;100404.13;6207199;28;20073;-88
2022/12/12 14:23:12;;;;;;;26.58;11.90;;;;;;;-4.19;100.00;100403.38;6206698;28;20555;-88
2022/12/12 14:26:26;;;;;;;27.00;11.85;;;;;;;-4.20;100.00;100403.38;6207649;28;20054;-87